createdAt,value
2017-06-25T00:00:25.099Z,21.20
2017-06-25T00:02:52.631Z,21.37
2017-06-25T00:05:20.149Z,21.10
2017-06-25T00:07:48.428Z,22.73
2017-06-25T00:10:15.959Z,21.83
2017-06-25T00:12:43.467Z,21.60
2017-06-25T00:15:10.995Z,22.17
2017-06-25T00:17:38.511Z,22.80
2017-06-25T00:20:06.055Z,22.90
2017-06-25T00:22:33.571Z,23.27
2017-06-25T00:25:01.079Z,22.50
2017-06-25T00:27:28.599Z,23.60
2017-06-25T00:29:56.110Z,23.23
2017-06-25T00:32:23.636Z,22.17
2017-06-25T00:34:51.158Z,21.70
2017-06-25T00:37:19.466Z,22.50
2017-06-25T00:39:46.979Z,23.77
2017-06-25T00:42:14.487Z,23.00
2017-06-25T00:44:42.022Z,22.30
2017-06-25T00:47:10.295Z,22.33
2017-06-25T00:49:38.587Z,21.83
2017-06-25T00:52:06.098Z,23.23
2017-06-25T00:54:37.616Z,22.43
2017-06-25T00:57:05.123Z,22.20
2017-06-25T00:59:32.655Z,22.63
2017-06-25T01:02:00.166Z,23.70
2017-06-25T01:04:27.671Z,24.90
2017-06-25T01:06:55.194Z,25.03
2017-06-25T01:09:22.703Z,23.60
2017-06-25T01:11:50.237Z,23.87
2017-06-25T01:14:17.751Z,22.83
2017-06-25T01:16:46.023Z,22.00
2017-06-25T01:19:13.547Z,23.80
2017-06-25T01:21:41.059Z,23.47
2017-06-25T01:24:08.597Z,23.23
2017-06-25T01:26:36.107Z,23.67
2017-06-25T01:29:03.624Z,23.70
2017-06-25T01:31:31.157Z,22.73
2017-06-25T01:33:58.664Z,22.67
2017-06-25T01:36:26.211Z,24.27
2017-06-25T01:38:53.723Z,23.23
2017-06-25T01:41:21.230Z,22.83
2017-06-25T01:43:48.751Z,23.60
2017-06-25T01:46:16.260Z,23.73
2017-06-25T01:48:43.815Z,23.97
2017-06-25T01:51:11.319Z,23.87
2017-06-25T01:53:38.824Z,23.23
2017-06-25T01:56:06.351Z,23.80
2017-06-25T01:58:33.859Z,25.57
2017-06-25T02:01:01.395Z,25.00
2017-06-25T02:03:28.903Z,24.73
2017-06-25T02:05:56.410Z,24.63
2017-06-25T02:08:23.939Z,24.37
2017-06-25T02:10:52.215Z,26.20
2017-06-25T02:13:20.531Z,24.53
2017-06-25T02:15:48.034Z,25.30
2017-06-25T02:18:15.547Z,26.00
2017-06-25T02:20:43.072Z,24.53
2017-06-25T02:23:10.580Z,25.77
2017-06-25T02:25:38.122Z,26.40
2017-06-25T02:28:05.623Z,27.50
2017-06-25T02:30:33.135Z,26.30
2017-06-25T02:33:00.660Z,25.50
2017-06-25T02:35:28.931Z,26.00
2017-06-25T02:37:56.458Z,26.00
2017-06-25T02:40:23.966Z,25.17
2017-06-25T02:42:51.471Z,27.43
2017-06-25T02:45:18.995Z,24.80
2017-06-25T02:47:46.521Z,25.03
2017-06-25T02:50:14.819Z,25.30
2017-06-25T02:52:42.328Z,27.50
2017-06-25T02:55:09.835Z,26.93
2017-06-25T02:57:37.363Z,27.20
2017-06-25T03:00:04.875Z,27.77
2017-06-25T03:02:32.407Z,28.60
2017-06-25T03:04:59.915Z,27.57
2017-06-25T03:07:27.423Z,26.07
2017-06-25T03:09:54.946Z,28.07
2017-06-25T03:12:22.451Z,24.53
2017-06-25T03:14:49.979Z,26.17
2017-06-25T03:17:17.483Z,27.60
2017-06-25T03:19:44.987Z,28.70
2017-06-25T03:22:12.515Z,27.20
2017-06-25T03:24:40.023Z,27.10
2017-06-25T03:27:07.559Z,26.70
2017-06-25T03:29:35.063Z,28.27
2017-06-25T03:32:02.571Z,26.70
2017-06-25T03:34:30.099Z,26.93
2017-06-25T03:36:57.781Z,27.87
2017-06-25T03:39:25.339Z,26.93
2017-06-25T03:41:52.842Z,26.90
2017-06-25T03:44:20.356Z,27.47
2017-06-25T03:46:47.883Z,27.93
2017-06-25T03:49:15.390Z,28.57
2017-06-25T03:51:42.943Z,29.17
2017-06-25T03:54:10.452Z,29.23
2017-06-25T03:56:37.963Z,27.13
2017-06-25T03:59:05.488Z,28.20
2017-06-25T04:01:32.995Z,26.93
2017-06-25T04:04:01.295Z,27.60
2017-06-25T04:06:28.799Z,26.57
2017-06-25T04:08:56.310Z,26.80
2017-06-25T04:11:23.844Z,26.20
2017-06-25T04:13:52.119Z,26.90
2017-06-25T04:16:19.650Z,26.90
2017-06-25T04:18:47.156Z,25.00
2017-06-25T04:21:14.666Z,26.40
2017-06-25T04:23:42.192Z,25.37
2017-06-25T04:26:09.703Z,25.30
2017-06-25T04:28:37.239Z,25.20
2017-06-25T04:31:04.747Z,24.70
2017-06-25T04:33:32.258Z,23.03
2017-06-25T04:35:59.784Z,24.57
2017-06-25T04:38:27.290Z,25.50
2017-06-25T04:40:54.832Z,25.60
2017-06-25T04:43:22.339Z,25.97
2017-06-25T04:45:49.848Z,25.80
2017-06-25T04:48:17.370Z,25.63
2017-06-25T04:50:44.883Z,25.63
2017-06-25T04:53:12.407Z,25.67
2017-06-25T04:55:39.914Z,26.03
2017-06-25T04:58:07.458Z,25.60
2017-06-25T05:00:34.962Z,26.17
2017-06-25T05:03:02.471Z,23.47
2017-06-25T05:05:29.994Z,25.67
2017-06-25T05:07:57.498Z,26.57
2017-06-25T05:10:25.050Z,26.13
2017-06-25T05:12:53.470Z,26.83
2017-06-25T05:15:20.983Z,25.93
2017-06-25T05:17:48.503Z,25.40
2017-06-25T05:20:16.011Z,25.00
2017-06-25T05:22:43.542Z,23.10
2017-06-25T05:25:11.048Z,23.70
2017-06-25T05:27:39.327Z,23.40
2017-06-25T05:30:07.615Z,24.47
2017-06-25T05:32:35.127Z,23.60
2017-06-25T05:35:02.671Z,23.47
2017-06-25T05:37:30.181Z,21.17
2017-06-25T05:39:57.691Z,22.50
2017-06-25T05:42:25.225Z,21.40
2017-06-25T05:44:52.735Z,21.33
2017-06-25T05:47:21.047Z,21.93
2017-06-25T05:49:48.558Z,21.37
2017-06-25T05:52:16.067Z,20.23
2017-06-25T05:54:43.590Z,19.80
2017-06-25T05:57:11.872Z,20.03
2017-06-25T05:59:40.191Z,20.40
2017-06-25T06:02:07.703Z,20.10
2017-06-25T06:04:35.215Z,20.20
2017-06-25T06:07:02.743Z,21.33
2017-06-25T06:09:30.248Z,19.13
2017-06-25T06:11:57.774Z,21.53
2017-06-25T06:14:25.279Z,20.30
2017-06-25T06:16:52.791Z,22.03
2017-06-25T06:19:20.324Z,22.67
2017-06-25T06:21:47.831Z,22.97
2017-06-25T06:24:15.358Z,19.77
2017-06-25T06:26:42.871Z,20.97
2017-06-25T06:29:10.399Z,20.50
2017-06-25T06:31:37.918Z,19.70
2017-06-25T06:34:05.427Z,21.80
2017-06-25T06:36:32.970Z,18.53
2017-06-25T06:39:00.474Z,20.80
2017-06-25T06:41:28.751Z,20.23
2017-06-25T06:43:56.279Z,20.03
2017-06-25T06:46:23.787Z,19.40
2017-06-25T06:48:51.319Z,19.43
2017-06-25T06:51:18.825Z,20.73
2017-06-25T06:53:46.335Z,18.83
2017-06-25T06:56:13.863Z,20.47
2017-06-25T06:58:41.371Z,19.20
2017-06-25T07:01:09.675Z,19.40
2017-06-25T07:03:37.184Z,17.97
2017-06-25T07:06:04.696Z,18.17
2017-06-25T07:08:32.223Z,18.40
2017-06-25T07:10:59.730Z,19.07
2017-06-25T07:13:27.259Z,18.53
2017-06-25T07:15:54.766Z,18.07
2017-06-25T07:18:22.322Z,18.27
2017-06-25T07:20:49.827Z,17.10
2017-06-25T07:23:17.340Z,18.53
2017-06-25T07:25:44.899Z,17.73
2017-06-25T07:28:12.406Z,20.60
2017-06-25T07:30:39.943Z,19.53
2017-06-25T07:33:07.455Z,18.60
2017-06-25T07:35:34.963Z,19.13
2017-06-25T07:38:02.493Z,17.00
2017-06-25T07:40:30.002Z,17.27
2017-06-25T07:42:57.539Z,17.80
2017-06-25T07:45:25.057Z,17.30
2017-06-25T07:47:52.567Z,16.03
2017-06-25T07:50:20.103Z,18.07
2017-06-25T07:52:48.387Z,17.10
2017-06-25T07:55:16.674Z,17.50
2017-06-25T07:57:44.191Z,16.87
2017-06-25T08:00:11.728Z,15.67
2017-06-25T08:02:39.268Z,15.27
2017-06-25T08:05:06.783Z,16.50
2017-06-25T08:07:34.312Z,15.40
2017-06-25T08:10:01.819Z,15.30
2017-06-25T08:12:30.126Z,15.80
2017-06-25T08:14:57.639Z,16.30
2017-06-25T08:17:25.161Z,15.43
2017-06-25T08:19:52.686Z,16.43
2017-06-25T08:22:20.198Z,16.40
2017-06-25T08:24:47.719Z,16.73
2017-06-25T08:27:15.235Z,15.67
2017-06-25T08:29:42.762Z,18.03
2017-06-25T08:32:10.288Z,16.17
2017-06-25T08:34:37.807Z,15.17
2017-06-25T08:37:06.432Z,16.50
2017-06-25T08:39:33.935Z,16.47
2017-06-25T08:42:01.467Z,15.00
2017-06-25T08:44:28.975Z,17.13
2017-06-25T08:46:56.484Z,17.87
2017-06-25T08:49:24.007Z,14.90
2017-06-25T08:51:51.554Z,16.40
2017-06-25T08:54:19.087Z,17.40
2017-06-25T08:56:46.597Z,16.30
2017-06-25T08:59:14.115Z,15.80
2017-06-25T09:01:42.438Z,14.83
2017-06-25T09:04:09.976Z,15.40
2017-06-25T09:06:37.516Z,17.10
2017-06-25T09:09:05.068Z,15.23
2017-06-25T09:11:32.617Z,16.27
2017-06-25T09:14:00.146Z,16.60
2017-06-25T09:16:27.771Z,15.43
2017-06-25T09:18:55.311Z,16.50
2017-06-25T09:21:22.824Z,16.60
2017-06-25T09:23:50.691Z,16.20
2017-06-25T09:26:18.223Z,17.13
2017-06-25T09:28:45.918Z,16.40
2017-06-25T09:31:13.475Z,15.93
2017-06-25T09:33:40.992Z,16.93
2017-06-25T09:36:08.499Z,16.90
2017-06-25T09:38:36.027Z,17.70
2017-06-25T09:41:03.555Z,16.17
2017-06-25T09:43:31.088Z,16.97
2017-06-25T09:45:58.599Z,17.17
2017-06-25T09:48:26.107Z,16.43
2017-06-25T09:50:53.636Z,14.07
2017-06-25T09:53:21.143Z,13.23
2017-06-25T09:55:48.704Z,15.73
2017-06-25T09:58:16.227Z,15.73
2017-06-25T10:00:43.744Z,15.07
2017-06-25T10:03:11.271Z,15.87
2017-06-25T10:05:39.551Z,15.80
2017-06-25T10:08:07.087Z,15.30
2017-06-25T10:10:34.598Z,16.10
2017-06-25T10:13:02.106Z,14.40
2017-06-25T10:15:29.647Z,17.50
2017-06-25T10:17:57.161Z,14.83
2017-06-25T10:20:24.693Z,14.93
2017-06-25T10:22:52.975Z,15.67
2017-06-25T10:25:21.255Z,15.90
2017-06-25T10:27:48.779Z,16.20
2017-06-25T10:30:16.291Z,16.17
2017-06-25T10:32:43.819Z,14.20
2017-06-25T10:35:11.331Z,16.27
2017-06-25T10:37:38.842Z,15.60
2017-06-25T10:40:06.381Z,15.60
2017-06-25T10:42:33.895Z,15.77
2017-06-25T10:45:01.427Z,15.20
2017-06-25T10:47:28.943Z,16.30
2017-06-25T10:49:56.451Z,14.70
2017-06-25T10:52:23.984Z,15.13
2017-06-25T10:54:51.502Z,15.60
2017-06-25T10:57:19.031Z,16.47
2017-06-25T10:59:46.549Z,16.27
2017-06-25T11:02:14.087Z,15.33
2017-06-25T11:04:41.590Z,14.27
2017-06-25T11:07:09.095Z,14.50
2017-06-25T11:09:36.631Z,15.93
2017-06-25T11:12:04.148Z,13.50
2017-06-25T11:14:31.671Z,14.07
2017-06-25T11:16:59.183Z,14.50
2017-06-25T11:19:26.724Z,15.40
2017-06-25T11:21:54.230Z,17.23
2017-06-25T11:24:21.759Z,15.33
2017-06-25T11:26:49.281Z,17.47
2017-06-25T11:29:16.821Z,16.47
2017-06-25T11:31:44.328Z,15.60
2017-06-25T11:34:11.842Z,15.90
2017-06-25T11:36:39.370Z,14.17
2017-06-25T11:39:06.883Z,13.50
2017-06-25T11:41:34.412Z,14.30
2017-06-25T11:44:01.920Z,13.27
2017-06-25T11:46:29.454Z,12.50
2017-06-25T11:48:56.966Z,13.10
2017-06-25T11:51:24.499Z,13.30
2017-06-25T11:53:52.774Z,12.10
2017-06-25T11:56:20.283Z,13.70
2017-06-25T11:58:47.806Z,12.67
2017-06-25T12:01:15.314Z,13.40
2017-06-25T12:03:42.839Z,13.23
2017-06-25T12:06:10.348Z,12.30
2017-06-25T12:08:37.875Z,11.63
2017-06-25T12:11:05.391Z,10.77
2017-06-25T12:13:32.922Z,11.57
2017-06-25T12:16:00.432Z,11.43
2017-06-25T12:18:27.948Z,10.90
2017-06-25T12:20:55.470Z,9.70
2017-06-25T12:23:22.986Z,10.50
2017-06-25T12:25:50.515Z,11.13
2017-06-25T12:28:18.023Z,10.47
2017-06-25T12:30:45.553Z,10.07
2017-06-25T12:33:13.831Z,10.00
2017-06-25T12:35:42.123Z,8.60
2017-06-25T12:38:09.632Z,8.13
2017-06-25T12:40:37.139Z,8.73
2017-06-25T12:43:04.664Z,10.23
2017-06-25T12:45:32.167Z,9.50
2017-06-25T12:47:59.686Z,8.77
2017-06-25T12:50:27.194Z,9.63
2017-06-25T12:52:54.717Z,9.27
2017-06-25T12:55:22.991Z,9.60
2017-06-25T12:57:51.304Z,9.77
2017-06-25T13:00:18.811Z,9.00
2017-06-25T13:02:46.320Z,9.10
2017-06-25T13:05:13.839Z,8.73
2017-06-25T13:07:42.111Z,8.20
2017-06-25T13:10:09.636Z,9.10
2017-06-25T13:12:37.143Z,9.37
2017-06-25T13:15:04.667Z,9.43
2017-06-25T13:17:32.166Z,9.50
2017-06-25T13:19:59.695Z,9.83
2017-06-25T13:22:27.971Z,9.07
2017-06-25T13:24:55.483Z,9.50
2017-06-25T13:27:23.003Z,9.47
2017-06-25T13:29:51.275Z,9.23
2017-06-25T13:32:19.563Z,9.10
2017-06-25T13:34:47.067Z,9.57
2017-06-25T13:37:14.591Z,8.83
2017-06-25T13:39:42.099Z,9.07
2017-06-25T13:42:09.639Z,8.73
2017-06-25T13:44:37.149Z,8.80
2017-06-25T13:47:04.658Z,9.70
2017-06-25T13:49:32.183Z,10.50
2017-06-25T13:51:59.694Z,8.90
2017-06-25T13:54:27.215Z,9.70
2017-06-25T13:56:54.723Z,9.70
2017-06-25T13:59:22.242Z,8.20
2017-06-25T14:01:49.751Z,7.80
2017-06-25T14:04:18.256Z,7.73
2017-06-25T14:06:45.762Z,8.57
2017-06-25T14:09:13.263Z,8.90
2017-06-25T14:11:40.795Z,8.40
2017-06-25T14:14:09.072Z,8.73
2017-06-25T14:16:37.364Z,8.90
2017-06-25T14:19:05.645Z,9.03
2017-06-25T14:21:33.166Z,9.30
2017-06-25T14:24:00.674Z,9.00
2017-06-25T14:26:28.203Z,9.43
2017-06-25T14:28:55.711Z,9.70
2017-06-25T14:31:23.228Z,10.10
2017-06-25T14:33:51.514Z,9.97
2017-06-25T14:36:19.019Z,8.90
2017-06-25T14:38:46.549Z,10.00
2017-06-25T14:41:14.055Z,10.27
2017-06-25T14:43:41.579Z,9.57
2017-06-25T14:46:09.087Z,10.13
2017-06-25T14:48:37.395Z,10.03
2017-06-25T14:51:04.907Z,9.63
2017-06-25T14:53:32.410Z,9.87
2017-06-25T14:55:59.947Z,9.70
2017-06-25T14:58:28.220Z,10.40
2017-06-25T15:00:55.756Z,10.00
2017-06-25T15:03:23.274Z,10.57
2017-06-25T15:05:50.804Z,9.90
2017-06-25T15:08:18.310Z,10.50
2017-06-25T15:10:45.840Z,10.40
2017-06-25T15:13:13.355Z,9.33
2017-06-25T15:15:40.867Z,9.73
2017-06-25T15:18:08.391Z,9.73
2017-06-25T15:20:36.663Z,10.10
2017-06-25T15:23:04.196Z,9.73
2017-06-25T15:25:31.706Z,9.77
2017-06-25T15:27:59.231Z,9.47
2017-06-25T15:30:26.735Z,9.53
2017-06-25T15:32:54.263Z,27.50
2017-06-25T15:35:22.543Z,18.03
2017-06-25T15:37:50.063Z,10.73
2017-06-25T15:40:17.584Z,9.77
2017-06-25T15:42:45.087Z,9.77
2017-06-25T15:45:12.615Z,10.70
2017-06-25T15:47:40.127Z,9.20
2017-06-25T15:50:08.424Z,12.00
2017-06-25T15:52:35.926Z,9.27
2017-06-25T15:55:03.453Z,8.80
2017-06-25T15:57:30.967Z,9.57
2017-06-25T15:59:59.239Z,9.00
2017-06-25T16:02:26.778Z,10.90
2017-06-25T16:04:54.283Z,9.33
2017-06-25T16:07:21.811Z,9.90
2017-06-25T16:09:49.319Z,10.13
2017-06-25T16:12:16.842Z,11.17
2017-06-25T16:14:45.119Z,8.83
2017-06-25T16:17:13.428Z,9.30
2017-06-25T16:19:40.935Z,8.60
2017-06-25T16:22:08.444Z,8.87
2017-06-25T16:24:35.979Z,8.70
2017-06-25T16:27:03.491Z,8.47
2017-06-25T16:29:31.019Z,9.70
2017-06-25T16:31:58.527Z,9.33
2017-06-25T16:34:26.051Z,8.23
2017-06-25T16:36:53.559Z,9.10
2017-06-25T16:39:21.099Z,8.47
2017-06-25T16:41:48.612Z,8.80
2017-06-25T16:44:16.118Z,8.13
2017-06-25T16:46:43.647Z,8.87
2017-06-25T16:49:11.155Z,8.17
2017-06-25T16:51:39.443Z,8.50
2017-06-25T16:54:06.979Z,8.13
2017-06-25T16:56:34.511Z,7.73
2017-06-25T16:59:02.027Z,9.30
2017-06-25T17:01:29.560Z,8.10
2017-06-25T17:03:57.075Z,8.60
2017-06-25T17:06:24.580Z,8.20
2017-06-25T17:08:52.103Z,12.20
2017-06-25T17:11:19.607Z,8.90
2017-06-25T17:13:47.131Z,8.00
2017-06-25T17:16:14.643Z,10.07
2017-06-25T17:18:42.171Z,12.10
2017-06-25T17:21:10.446Z,12.40
2017-06-25T17:23:37.955Z,9.80
2017-06-25T17:26:05.487Z,10.37
2017-06-25T17:28:32.996Z,18.60
2017-06-25T17:31:00.523Z,11.37
2017-06-25T17:33:28.040Z,13.90
2017-06-25T17:35:57.171Z,12.93
2017-06-25T17:38:24.684Z,12.47
2017-06-25T17:40:52.959Z,11.60
2017-06-25T17:43:20.484Z,16.20
2017-06-25T17:45:47.991Z,12.53
2017-06-25T17:48:16.289Z,10.07
2017-06-25T17:50:43.807Z,8.97
2017-06-25T17:53:11.349Z,7.33
2017-06-25T17:55:38.862Z,7.00
2017-06-25T17:58:06.383Z,7.43
2017-06-25T18:00:33.890Z,6.43
2017-06-25T18:03:01.391Z,7.37
2017-06-25T18:05:28.913Z,7.47
2017-06-25T18:07:56.424Z,6.90
2017-06-25T18:10:23.948Z,7.10
2017-06-25T18:12:51.450Z,6.63
2017-06-25T18:15:19.744Z,7.17
2017-06-25T18:17:47.246Z,6.70
2017-06-25T18:20:14.760Z,7.00
2017-06-25T18:22:42.283Z,6.80
2017-06-25T18:25:09.792Z,7.57
2017-06-25T18:27:37.309Z,6.50
2017-06-25T18:30:04.815Z,7.20
2017-06-25T18:32:32.335Z,6.20
2017-06-25T18:34:59.860Z,6.90
2017-06-25T18:37:27.368Z,6.40
2017-06-25T18:39:54.898Z,6.27
2017-06-25T18:42:23.179Z,6.43
2017-06-25T18:44:50.709Z,6.47
2017-06-25T18:47:18.214Z,7.43
2017-06-25T18:49:45.730Z,6.80
2017-06-25T18:52:13.243Z,7.17
2017-06-25T18:54:40.751Z,6.40
2017-06-25T18:57:08.274Z,6.93
2017-06-25T18:59:35.779Z,6.97
2017-06-25T19:02:04.066Z,6.70
2017-06-25T19:04:32.339Z,6.20
2017-06-25T19:07:00.633Z,6.13
2017-06-25T19:09:28.148Z,6.73
2017-06-25T19:11:55.655Z,6.43
2017-06-25T19:14:23.184Z,6.10
2017-06-25T19:16:51.458Z,6.50
2017-06-25T19:19:19.748Z,5.73
2017-06-25T19:21:47.263Z,5.80
2017-06-25T19:24:14.794Z,6.80
2017-06-25T19:26:42.303Z,6.40
2017-06-25T19:29:09.811Z,7.13
2017-06-25T19:31:37.356Z,6.57
2017-06-25T19:34:04.863Z,6.70
2017-06-25T19:36:32.436Z,6.57
2017-06-25T19:38:59.940Z,6.10
2017-06-25T19:41:27.472Z,6.57
2017-06-25T19:43:55.788Z,6.03
2017-06-25T19:46:23.316Z,6.27
2017-06-25T19:48:50.843Z,5.80
2017-06-25T19:51:18.347Z,6.70
2017-06-25T19:53:45.873Z,5.63
2017-06-25T19:56:13.378Z,6.80
2017-06-25T19:58:40.905Z,6.83
2017-06-25T20:01:08.422Z,6.00
2017-06-25T20:03:35.961Z,6.40
2017-06-25T20:06:03.466Z,5.27
2017-06-25T20:08:30.975Z,6.57
2017-06-25T20:10:58.503Z,6.70
2017-06-25T20:13:26.027Z,6.07
2017-06-25T20:15:53.555Z,6.80
2017-06-25T20:18:21.062Z,6.03
2017-06-25T20:20:48.595Z,6.00
2017-06-25T20:23:16.103Z,5.93
2017-06-25T20:25:43.675Z,6.33
2017-06-25T20:28:11.201Z,7.13
2017-06-25T20:30:39.471Z,6.33
2017-06-25T20:33:06.991Z,6.63
2017-06-25T20:35:34.497Z,6.67
2017-06-25T20:38:02.027Z,6.47
2017-06-25T20:40:29.526Z,7.00
2017-06-25T20:42:57.035Z,7.47
2017-06-25T20:45:24.563Z,6.70
2017-06-25T20:47:52.075Z,7.07
2017-06-25T20:50:19.599Z,6.30
2017-06-25T20:52:47.103Z,6.33
2017-06-25T20:55:15.411Z,6.10
2017-06-25T20:57:42.915Z,5.90
2017-06-25T21:00:10.428Z,6.97
2017-06-25T21:02:37.958Z,6.77
2017-06-25T21:05:06.227Z,6.60
2017-06-25T21:07:34.506Z,6.17
2017-06-25T21:10:02.783Z,6.40
2017-06-25T21:12:31.075Z,6.63
2017-06-25T21:14:58.575Z,6.37
2017-06-25T21:17:26.101Z,6.77
2017-06-25T21:19:53.610Z,7.37
2017-06-25T21:22:21.111Z,6.67
2017-06-25T21:24:48.627Z,6.70
2017-06-25T21:27:16.131Z,6.40
2017-06-25T21:29:43.651Z,7.57
2017-06-25T21:32:11.160Z,7.70
2017-06-25T21:34:38.683Z,6.37
2017-06-25T21:37:06.191Z,6.93
2017-06-25T21:39:33.695Z,6.40
2017-06-25T21:42:01.219Z,6.80
2017-06-25T21:44:28.715Z,6.20
2017-06-25T21:46:57.003Z,7.40
2017-06-25T21:49:24.510Z,6.20
2017-06-25T21:51:52.038Z,7.10
2017-06-25T21:54:19.547Z,7.53
2017-06-25T21:56:47.059Z,7.83
2017-06-25T21:59:14.578Z,7.00
2017-06-25T22:01:42.083Z,7.40
2017-06-25T22:04:09.603Z,7.00
2017-06-25T22:06:37.103Z,7.73
2017-06-25T22:09:04.627Z,7.13
2017-06-25T22:11:32.127Z,7.90
2017-06-25T22:13:59.626Z,6.70
2017-06-25T22:16:27.147Z,7.30
2017-06-25T22:18:54.651Z,7.50
2017-06-25T22:21:22.179Z,8.10
2017-06-25T22:23:49.694Z,8.20
2017-06-25T22:26:17.239Z,8.00
2017-06-25T22:28:44.744Z,7.93
2017-06-25T22:31:12.247Z,7.93
2017-06-25T22:33:39.774Z,7.90
2017-06-25T22:36:07.280Z,7.50
2017-06-25T22:38:34.805Z,8.60
2017-06-25T22:41:03.075Z,8.17
2017-06-25T22:43:30.604Z,8.00
2017-06-25T22:45:58.106Z,8.50
2017-06-25T22:48:26.378Z,8.17
2017-06-25T22:50:53.899Z,8.13
2017-06-25T22:53:21.411Z,8.00
2017-06-25T22:55:48.931Z,9.10
2017-06-25T22:58:16.441Z,8.40
2017-06-25T23:00:43.967Z,7.90
2017-06-25T23:03:11.487Z,7.33
2017-06-25T23:05:38.990Z,8.47
2017-06-25T23:08:07.279Z,8.20
2017-06-25T23:10:34.782Z,8.03
2017-06-25T23:13:02.300Z,7.87
2017-06-25T23:15:29.811Z,8.27
2017-06-25T23:17:57.340Z,9.00
2017-06-25T23:20:24.843Z,8.80
2017-06-25T23:22:53.114Z,8.70
2017-06-25T23:25:20.635Z,8.50
2017-06-25T23:27:48.147Z,9.10
2017-06-25T23:30:15.670Z,8.63
2017-06-25T23:32:43.177Z,7.90
2017-06-25T23:35:10.707Z,8.53
2017-06-25T23:37:38.215Z,8.30
2017-06-25T23:40:05.714Z,8.20
2017-06-25T23:42:33.235Z,8.23
2017-06-25T23:45:00.744Z,8.30
2017-06-25T23:47:28.263Z,7.93
2017-06-25T23:49:55.766Z,8.47
2017-06-25T23:52:24.070Z,9.20
2017-06-25T23:54:51.575Z,8.53
2017-06-25T23:57:19.085Z,8.97
2017-06-25T23:59:46.610Z,9.27
